Time;durP1;ratioP1;P1;durP2;ratioP2;P2;SDS_P1;SDS_P2;PMS_P1;PMS_P2;Temp;Humidity;BMP_temperature;BMP_pressure;BME280_temperature;BME280_humidity;BME280_pressure;Samples;Min_cycle;Max_cycle;Signal;HPM_P1;HPM_P2
2023/10/08 00:00:55;;;;;;;0.00;0.00;;;12.40;1.00;;;;;;5036356;28;20490;-78
2023/10/08 00:03:21;;;;;;;0.00;0.00;;;12.50;1.00;;;;;;5029262;28;20053;-78
2023/10/08 00:05:49;;;;;;;0.00;0.00;;;12.50;1.00;;;;;;5036265;28;20572;-78
2023/10/08 00:08:16;;;;;;;0.00;0.00;;;12.40;1.00;;;;;;5038010;28;20052;-78
2023/10/08 00:10:43;;;;;;;0.20;0.10;;;12.40;22.80;;;;;;5037189;28;20071;-78
2023/10/08 00:13:12;;;;;;;0.05;0.05;;;12.40;62.40;;;;;;5037527;28;20110;-78
2023/10/08 00:15:55;;;;;;;0.03;0.03;;;12.40;88.00;;;;;;5040066;28;20527;-78
2023/10/08 00:18:22;;;;;;;0.00;0.00;;;12.50;99.90;;;;;;5041346;28;20048;-78
2023/10/08 00:20:58;;;;;;;0.00;0.00;;;12.40;99.90;;;;;;5041948;28;20510;-78
2023/10/08 00:23:25;;;;;;;0.10;0.00;;;12.40;99.90;;;;;;5041174;28;20505;-78
2023/10/08 00:25:52;;;;;;;0.00;0.00;;;12.60;99.90;;;;;;5041591;28;20045;-79
2023/10/08 00:28:18;;;;;;;0.08;0.00;;;12.30;99.90;;;;;;5052786;28;20501;-78
2023/10/08 00:30:44;;;;;;;0.00;0.00;;;12.30;99.90;;;;;;5053351;28;20116;-78
2023/10/08 00:33:11;;;;;;;0.00;0.00;;;12.30;99.90;;;;;;5039280;28;20037;-78
2023/10/08 00:35:41;;;;;;;0.00;0.00;;;12.30;99.90;;;;;;5037496;28;20518;-78
2023/10/08 00:38:14;;;;;;;0.00;0.00;;;12.30;99.90;;;;;;5038179;28;20067;-78
2023/10/08 00:40:42;;;;;;;0.00;0.00;;;12.30;99.90;;;;;;5040460;28;20148;-78
2023/10/08 00:43:10;;;;;;;0.00;0.00;;;12.30;99.90;;;;;;5043904;28;20047;-79
2023/10/08 00:45:42;;;;;;;0.00;0.00;;;12.20;99.90;;;;;;5043138;28;20049;-79
2023/10/08 00:48:09;;;;;;;0.00;0.00;;;12.20;99.90;;;;;;5044210;28;20407;-78
2023/10/08 00:50:42;;;;;;;0.00;0.00;;;12.20;99.90;;;;;;5041724;28;20045;-78
2023/10/08 00:53:22;;;;;;;0.00;0.00;;;12.20;99.90;;;;;;5041368;28;20076;-78
2023/10/08 00:56:04;;;;;;;0.00;0.00;;;12.20;99.90;;;;;;5042698;28;20056;-78
2023/10/08 00:58:33;;;;;;;0.00;0.00;;;12.20;99.90;;;;;;5041526;28;20037;-78
2023/10/08 01:01:00;;;;;;;0.00;0.00;;;12.20;99.90;;;;;;5047435;28;20045;-78
2023/10/08 01:03:27;;;;;;;0.00;0.00;;;12.20;99.90;;;;;;5055889;28;20041;-78
2023/10/08 01:05:57;;;;;;;0.00;0.00;;;12.20;99.90;;;;;;5056237;28;20047;-78
2023/10/08 01:08:36;;;;;;;0.00;0.00;;;12.20;99.90;;;;;;5055217;28;20383;-79
2023/10/08 01:11:32;;;;;;;0.00;0.00;;;12.50;99.90;;;;;;5054161;28;20041;-78
2023/10/08 01:13:58;;;;;;;0.00;0.00;;;12.10;99.90;;;;;;5040951;28;20429;-78
2023/10/08 01:16:27;;;;;;;0.00;0.00;;;12.20;99.90;;;;;;5054085;28;20127;-78
2023/10/08 01:18:54;;;;;;;0.00;0.00;;;12.10;99.90;;;;;;5056998;28;20513;-78
2023/10/08 01:21:33;;;;;;;0.00;0.00;;;12.20;99.90;;;;;;5056636;28;20576;-78
2023/10/08 01:24:05;;;;;;;0.00;0.00;;;12.10;99.90;;;;;;5053352;28;20053;-78
2023/10/08 01:26:32;;;;;;;0.00;0.00;;;12.10;99.90;;;;;;5054223;28;20068;-78
2023/10/08 01:29:02;;;;;;;0.00;0.00;;;12.10;99.90;;;;;;5054491;28;20068;-78
2023/10/08 01:31:28;;;;;;;0.00;0.00;;;12.20;99.90;;;;;;5055643;28;20120;-78
2023/10/08 01:33:56;;;;;;;0.00;0.00;;;12.20;99.90;;;;;;5056941;28;20064;-78
2023/10/08 01:36:24;;;;;;;0.00;0.00;;;12.20;99.90;;;;;;5053576;28;20047;-78
2023/10/08 01:38:49;;;;;;;0.00;0.00;;;12.20;99.90;;;;;;5053603;28;20043;-78
2023/10/08 01:41:18;;;;;;;0.00;0.00;;;12.20;99.90;;;;;;5051820;28;20033;-78
2023/10/08 01:43:47;;;;;;;0.00;0.00;;;12.30;99.90;;;;;;5053250;28;20136;-78
2023/10/08 01:46:15;;;;;;;0.00;0.00;;;12.20;99.90;;;;;;5053134;28;20033;-78
2023/10/08 01:48:44;;;;;;;0.00;0.00;;;12.20;99.90;;;;;;5055099;28;20056;-78
2023/10/08 01:51:11;;;;;;;0.00;0.00;;;12.20;99.90;;;;;;5040230;28;20044;-79
2023/10/08 01:53:41;;;;;;;0.03;0.03;;;12.20;99.90;;;;;;5058658;28;20497;-80
2023/10/08 01:56:06;;;;;;;0.00;0.00;;;12.20;99.90;;;;;;5049149;28;20718;-79
2023/10/08 01:58:35;;;;;;;0.00;0.00;;;12.20;99.90;;;;;;5057782;28;20556;-79
2023/10/08 02:01:01;;;;;;;0.00;0.00;;;12.10;99.90;;;;;;5059006;28;20055;-79
2023/10/08 02:03:27;;;;;;;0.00;0.00;;;12.20;99.90;;;;;;5058470;28;20077;-79
2023/10/08 02:05:53;;;;;;;0.00;0.00;;;12.10;99.90;;;;;;5056983;28;20040;-79
2023/10/08 02:08:20;;;;;;;0.00;0.00;;;12.10;99.90;;;;;;5055796;28;20086;-79
2023/10/08 02:10:47;;;;;;;0.00;0.00;;;12.10;99.90;;;;;;5057351;28;20502;-79
2023/10/08 02:13:14;;;;;;;0.00;0.00;;;12.00;99.90;;;;;;5056365;28;20328;-79
2023/10/08 02:15:52;;;;;;;0.00;0.00;;;12.00;99.90;;;;;;5057738;28;20047;-79
2023/10/08 02:18:18;;;;;;;0.00;0.00;;;12.00;99.90;;;;;;5046623;28;20037;-79
2023/10/08 02:20:44;;;;;;;0.03;0.03;;;12.00;99.90;;;;;;5061872;28;20060;-80
2023/10/08 02:23:13;;;;;;;0.00;0.00;;;11.90;99.90;;;;;;5063100;28;20048;-80
2023/10/08 02:25:40;;;;;;;0.00;0.00;;;12.10;99.90;;;;;;5062952;28;20076;-80
2023/10/08 02:28:08;;;;;;;0.00;0.00;;;12.00;99.90;;;;;;5063190;28;20116;-80
2023/10/08 02:30:34;;;;;;;0.00;0.00;;;12.00;99.90;;;;;;5062933;28;20143;-80
2023/10/08 02:33:02;;;;;;;0.55;0.10;;;12.10;99.90;;;;;;5061910;28;20116;-80
2023/10/08 02:35:27;;;;;;;0.00;0.00;;;12.10;99.90;;;;;;5059563;28;20097;-80
2023/10/08 02:37:54;;;;;;;0.00;0.00;;;12.10;99.90;;;;;;5044201;28;20064;-80
2023/10/08 02:40:26;;;;;;;0.00;0.00;;;12.10;99.90;;;;;;5060683;28;20072;-80
2023/10/08 02:42:58;;;;;;;0.00;0.00;;;12.10;99.90;;;;;;5063633;28;20052;-80
2023/10/08 02:45:25;;;;;;;0.00;0.00;;;12.40;99.90;;;;;;5061236;28;20045;-80
2023/10/08 02:47:52;;;;;;;0.00;0.00;;;12.10;99.90;;;;;;5062592;28;20041;-80
2023/10/08 02:50:22;;;;;;;0.00;0.00;;;12.10;99.90;;;;;;5062207;28;20052;-80
2023/10/08 02:52:51;;;;;;;0.00;0.00;;;12.10;99.90;;;;;;5061074;28;20086;-80
2023/10/08 02:55:36;;;;;;;0.00;0.00;;;12.10;99.90;;;;;;5056917;28;20139;-80
2023/10/08 02:58:02;;;;;;;0.00;0.00;;;12.20;99.90;;;;;;5062621;28;20045;-80
2023/10/08 03:00:34;;;;;;;0.00;0.00;;;12.20;99.90;;;;;;5062730;28;20041;-80
2023/10/08 03:03:02;;;;;;;0.00;0.00;;;12.20;99.90;;;;;;5060208;28;20075;-80
2023/10/08 03:05:35;;;;;;;0.00;0.00;;;12.20;99.90;;;;;;5062697;28;20076;-80
2023/10/08 03:08:10;;;;;;;0.00;0.00;;;12.30;99.90;;;;;;5062235;28;20437;-80
2023/10/08 03:10:41;;;;;;;0.00;0.00;;;12.20;99.90;;;;;;5061430;28;20052;-80
2023/10/08 03:13:09;;;;;;;0.00;0.00;;;12.20;99.90;;;;;;5061104;28;20083;-80
2023/10/08 03:15:40;;;;;;;0.00;0.00;;;12.20;99.90;;;;;;5062993;28;20124;-80
2023/10/08 03:18:14;;;;;;;0.00;0.00;;;12.10;99.90;;;;;;5062470;28;20115;-80
2023/10/08 03:20:45;;;;;;;0.00;0.00;;;12.20;99.90;;;;;;5056051;28;20041;-80
2023/10/08 03:23:22;;;;;;;0.00;0.00;;;12.20;99.90;;;;;;5062816;28;21233;-80
2023/10/08 03:25:50;;;;;;;0.10;0.10;;;12.20;99.90;;;;;;5043418;28;20045;-80
2023/10/08 03:28:16;;;;;;;0.00;0.00;;;12.20;99.90;;;;;;5060861;28;20056;-80
2023/10/08 03:30:49;;;;;;;0.00;0.00;;;12.20;99.90;;;;;;5061729;28;20387;-80
2023/10/08 03:33:22;;;;;;;0.00;0.00;;;12.30;99.90;;;;;;5062167;28;20049;-80
2023/10/08 03:36:00;;;;;;;0.00;0.00;;;12.10;99.90;;;;;;5062025;28;20394;-80
2023/10/08 03:38:44;;;;;;;0.00;0.00;;;12.10;99.90;;;;;;5061496;28;20419;-80
2023/10/08 03:41:15;;;;;;;0.00;0.00;;;12.00;99.90;;;;;;5057094;28;20045;-80
2023/10/08 03:43:47;;;;;;;0.00;0.00;;;12.00;99.90;;;;;;5062798;28;20072;-80
2023/10/08 03:46:15;;;;;;;0.00;0.00;;;12.00;99.90;;;;;;5053688;28;20037;-80
2023/10/08 03:48:45;;;;;;;0.00;0.00;;;12.00;99.90;;;;;;5062506;28;20071;-80
2023/10/08 03:51:14;;;;;;;0.00;0.00;;;12.00;99.90;;;;;;5046482;28;20065;-80
2023/10/08 03:53:59;;;;;;;0.00;0.00;;;12.10;99.90;;;;;;5067051;28;20053;-80
2023/10/08 03:56:31;;;;;;;0.00;0.00;;;12.00;99.90;;;;;;5062105;28;20048;-80
2023/10/08 03:59:00;;;;;;;0.00;0.00;;;12.00;99.90;;;;;;5065936;28;20096;-80
2023/10/08 04:01:30;;;;;;;0.70;0.47;;;12.10;99.90;;;;;;5065125;28;20056;-80
2023/10/08 04:03:59;;;;;;;0.00;0.00;;;12.00;99.90;;;;;;5066149;28;20037;-79
2023/10/08 04:06:30;;;;;;;0.00;0.00;;;12.20;99.90;;;;;;5066673;28;20104;-79
2023/10/08 04:12:04;;;;;;;0.05;0.05;;;12.00;99.90;;;;;;5059725;28;20077;-79
2023/10/08 04:14:28;;;;;;;0.00;0.00;;;12.10;99.90;;;;;;5066266;28;20041;-79
2023/10/08 04:16:53;;;;;;;0.00;0.00;;;12.10;99.90;;;;;;5066888;28;20051;-79
2023/10/08 04:19:26;;;;;;;0.00;0.00;;;12.20;99.90;;;;;;5065804;28;20064;-79
2023/10/08 04:21:56;;;;;;;0.00;0.00;;;12.10;99.90;;;;;;5065795;28;20410;-79
2023/10/08 04:24:34;;;;;;;0.00;0.00;;;12.10;99.90;;;;;;5064362;28;20098;-79
2023/10/08 04:27:03;;;;;;;0.00;0.00;;;12.10;99.90;;;;;;5065950;28;20048;-79
2023/10/08 04:29:32;;;;;;;0.00;0.00;;;12.10;99.90;;;;;;5065347;28;20503;-79
2023/10/08 04:32:07;;;;;;;0.00;0.00;;;12.20;99.90;;;;;;5064856;28;20406;-79
2023/10/08 04:34:36;;;;;;;0.00;0.00;;;12.20;99.90;;;;;;5064205;28;20088;-79
2023/10/08 04:37:03;;;;;;;0.00;0.00;;;12.10;99.90;;;;;;5065852;28;20071;-79
2023/10/08 04:39:32;;;;;;;0.00;0.00;;;12.10;99.90;;;;;;5063547;28;20072;-79
2023/10/08 04:42:05;;;;;;;0.00;0.00;;;12.10;99.90;;;;;;5066052;28;20068;-79
2023/10/08 04:44:31;;;;;;;0.08;0.08;;;12.10;99.90;;;;;;5062132;28;20398;-79
2023/10/08 04:47:04;;;;;;;0.00;0.00;;;12.10;99.90;;;;;;5065454;28;20045;-79
2023/10/08 04:49:30;;;;;;;0.00;0.00;;;12.10;99.90;;;;;;5064203;28;20052;-79
2023/10/08 04:52:08;;;;;;;0.00;0.00;;;12.10;99.90;;;;;;5064581;28;20056;-79
2023/10/08 04:54:40;;;;;;;0.00;0.00;;;12.00;99.90;;;;;;5057596;28;20068;-79
2023/10/08 04:57:14;;;;;;;0.00;0.00;;;12.00;99.90;;;;;;5061579;28;20053;-79
2023/10/08 04:59:41;;;;;;;0.28;0.28;;;13.30;99.90;;;;;;5064303;28;20048;-79
2023/10/08 05:02:19;;;;;;;0.00;0.00;;;12.00;99.90;;;;;;5065170;28;20126;-79
2023/10/08 05:05:21;;;;;;;0.55;0.43;;;12.10;99.90;;;;;;5064466;28;20073;-79
2023/10/08 05:15:37;;;;;;;0.00;0.00;;;12.00;99.90;;;;;;5061993;28;20045;-79
2023/10/08 05:18:13;;;;;;;0.00;0.00;;;12.00;99.90;;;;;;5063165;28;20041;-79
2023/10/08 05:21:15;;;;;;;0.05;0.05;;;12.00;99.90;;;;;;5062852;28;20059;-79
2023/10/08 05:28:36;;;;;;;0.00;0.00;;;11.90;99.90;;;;;;5061490;28;20040;-79
2023/10/08 05:31:36;;;;;;;0.00;0.00;;;11.90;99.90;;;;;;5060350;28;20037;-79
2023/10/08 05:37:15;;;;;;;0.00;0.00;;;11.80;99.90;;;;;;5060716;28;20056;-79
2023/10/08 05:39:54;;;;;;;0.00;0.00;;;11.80;99.90;;;;;;5044025;28;20052;-79
2023/10/08 05:42:31;;;;;;;0.00;0.00;;;11.80;99.90;;;;;;5060494;28;20033;-79
2023/10/08 05:55:27;;;;;;;0.00;0.00;;;11.90;99.90;;;;;;5054774;28;20057;-80
2023/10/08 06:09:06;;;;;;;0.00;0.00;;;12.00;99.90;;;;;;5059320;28;20363;-79
2023/10/08 06:11:55;;;;;;;0.30;0.30;;;12.00;99.90;;;;;;5049857;28;20040;-79
2023/10/08 06:17:56;;;;;;;0.45;0.45;;;12.10;99.90;;;;;;5033168;28;20053;-79
2023/10/08 06:20:16;;;;;;;0.00;0.00;;;12.10;99.90;;;;;;5047560;28;20053;-79
2023/10/08 06:22:43;;;;;;;0.03;0.03;;;12.10;99.90;;;;;;5051179;28;20037;-79
2023/10/08 06:25:23;;;;;;;0.10;0.10;;;12.10;99.90;;;;;;5040731;28;20052;-79
2023/10/08 06:27:53;;;;;;;0.52;0.35;;;12.10;99.90;;;;;;5041819;28;20510;-79
2023/10/08 06:30:19;;;;;;;0.00;0.00;;;12.00;99.90;;;;;;5046842;28;20041;-79
2023/10/08 06:32:45;;;;;;;0.45;0.38;;;12.00;49.50;;;;;;5058779;28;20095;-79
2023/10/08 06:35:17;;;;;;;0.13;0.10;;;12.10;1.00;;;;;;5061453;28;20049;-79
2023/10/08 06:37:44;;;;;;;0.25;0.13;;;12.10;1.00;;;;;;5058317;28;20119;-79
2023/10/08 06:40:40;;;;;;;0.00;0.00;;;12.10;99.90;;;;;;5057273;28;20128;-79
2023/10/08 06:42:58;;;;;;;0.00;0.00;;;12.20;99.90;;;;;;5035095;28;20048;-79
2023/10/08 06:45:27;;;;;;;0.00;0.00;;;12.40;99.90;;;;;;5037636;28;20045;-80
2023/10/08 06:47:53;;;;;;;0.08;0.08;;;12.50;99.90;;;;;;5040519;28;20045;-80
2023/10/08 06:50:21;;;;;;;0.00;0.00;;;12.50;99.90;;;;;;5046597;28;20375;-79
2023/10/08 06:52:49;;;;;;;0.17;0.17;;;12.50;1.00;;;;;;5046535;28;20052;-79
2023/10/08 06:55:17;;;;;;;0.00;0.00;;;12.50;1.00;;;;;;5046000;28;20067;-80
2023/10/08 06:57:43;;;;;;;0.00;0.00;;;12.70;99.90;;;;;;5046058;28;20053;-79
2023/10/08 07:00:12;;;;;;;0.00;0.00;;;12.70;99.90;;;;;;5047085;28;20124;-80
2023/10/08 07:02:39;;;;;;;0.22;0.20;;;12.80;99.90;;;;;;5049067;28;20075;-80
2023/10/08 07:05:09;;;;;;;0.00;0.00;;;12.90;99.90;;;;;;5031909;28;20105;-79
2023/10/08 07:07:39;;;;;;;0.00;0.00;;;12.90;99.90;;;;;;5048291;28;20072;-79
2023/10/08 07:10:10;;;;;;;0.10;0.10;;;12.90;99.90;;;;;;5040445;28;20041;-80
2023/10/08 07:12:36;;;;;;;0.00;0.00;;;12.90;99.90;;;;;;5048334;28;20080;-80
2023/10/08 07:15:03;;;;;;;0.00;0.00;;;13.00;99.90;;;;;;5048455;28;20048;-80
2023/10/08 07:17:40;;;;;;;0.00;0.00;;;13.00;99.90;;;;;;5049704;28;20041;-79
2023/10/08 07:20:13;;;;;;;9.45;0.95;;;13.00;99.90;;;;;;5048080;28;20052;-79
2023/10/08 07:22:43;;;;;;;0.08;0.08;;;13.10;99.90;;;;;;5047823;28;20053;-80
2023/10/08 07:25:09;;;;;;;0.13;0.13;;;13.30;99.90;;;;;;5047740;28;20040;-80
2023/10/08 07:27:37;;;;;;;0.00;0.00;;;13.40;99.90;;;;;;5049186;28;20076;-79
2023/10/08 07:30:10;;;;;;;0.00;0.00;;;13.50;99.90;;;;;;5049051;28;20041;-80
2023/10/08 07:32:38;;;;;;;0.00;0.00;;;13.60;99.90;;;;;;5049346;28;20458;-80
2023/10/08 07:37:47;;;;;;;0.00;0.00;;;13.60;99.90;;;;;;5048693;28;20045;-79
2023/10/08 07:40:13;;;;;;;0.00;0.00;;;13.60;99.90;;;;;;5047305;28;20049;-80
2023/10/08 07:42:40;;;;;;;2.28;0.45;;;13.70;99.90;;;;;;5047226;28;20033;-80
2023/10/08 07:45:06;;;;;;;0.15;0.05;;;13.60;99.90;;;;;;5052882;28;20122;-80
2023/10/08 07:47:31;;;;;;;0.00;0.00;;;13.50;23.00;;;;;;5059242;28;20057;-79
2023/10/08 07:49:58;;;;;;;0.00;0.00;;;13.60;94.40;;;;;;5059195;28;20052;-79
2023/10/08 07:52:24;;;;;;;0.00;0.00;;;13.70;94.70;;;;;;5060076;28;20048;-79
2023/10/08 07:54:50;;;;;;;0.00;0.00;;;13.70;1.00;;;;;;5053177;28;20099;-80
2023/10/08 07:57:26;;;;;;;0.08;0.08;;;13.80;99.90;;;;;;5057718;28;20434;-80
2023/10/08 07:59:54;;;;;;;0.00;0.00;;;13.80;1.00;;;;;;5059422;28;20048;-80
2023/10/08 08:02:23;;;;;;;0.00;0.00;;;13.80;13.60;;;;;;5047049;28;20094;-79
2023/10/08 08:04:53;;;;;;;0.00;0.00;;;13.70;1.00;;;;;;5039851;28;20052;-79
2023/10/08 08:07:19;;;;;;;0.00;0.00;;;13.60;99.90;;;;;;5041570;28;20052;-79
2023/10/08 08:09:50;;;;;;;0.10;0.10;;;13.60;8.60;;;;;;5025406;28;20119;-79
2023/10/08 08:12:22;;;;;;;0.10;0.10;;;13.60;1.00;;;;;;5039543;28;20514;-79
2023/10/08 08:14:48;;;;;;;3.40;1.10;;;13.50;45.30;;;;;;5040228;28;20045;-79
2023/10/08 08:17:14;;;;;;;0.55;0.30;;;13.60;1.00;;;;;;5038456;28;20041;-79
2023/10/08 08:19:47;;;;;;;0.00;0.00;;;13.60;1.00;;;;;;5036132;28;20068;-79
2023/10/08 08:22:15;;;;;;;0.00;0.00;;;13.80;1.00;;;;;;5038796;28;20431;-79
2023/10/08 08:24:44;;;;;;;0.25;0.22;;;13.90;99.90;;;;;;5037533;28;20060;-79
2023/10/08 08:27:11;;;;;;;0.00;0.00;;;14.10;1.00;;;;;;5037797;28;20088;-79
2023/10/08 08:29:48;;;;;;;0.10;0.08;;;14.40;1.00;;;;;;5038641;28;20102;-79
2023/10/08 08:32:15;;;;;;;0.30;0.20;;;14.60;1.00;;;;;;5040145;28;20063;-79
2023/10/08 08:34:43;;;;;;;1.23;0.28;;;14.80;99.90;;;;;;5039877;28;20045;-78
2023/10/08 08:37:11;;;;;;;0.20;0.20;;;14.90;99.90;;;;;;5040414;28;20413;-79
2023/10/08 08:39:38;;;;;;;0.05;0.05;;;15.10;99.90;;;;;;5051969;28;20129;-79
2023/10/08 08:42:04;;;;;;;0.00;0.00;;;15.30;99.90;;;;;;5055881;28;20095;-79
2023/10/08 08:44:32;;;;;;;2.75;0.40;;;15.40;1.00;;;;;;5057098;28;20029;-79
2023/10/08 08:47:04;;;;;;;5.00;1.25;;;15.40;99.90;;;;;;5057450;28;20542;-79
2023/10/08 08:49:34;;;;;;;0.45;0.30;;;15.40;99.90;;;;;;5055029;28;20127;-79
2023/10/08 08:52:00;;;;;;;1.17;0.75;;;15.40;43.60;;;;;;5057140;28;20060;-79
2023/10/08 08:54:30;;;;;;;0.08;0.08;;;15.30;99.90;;;;;;5057568;28;20036;-79
2023/10/08 08:56:57;;;;;;;0.00;0.00;;;15.40;99.90;;;;;;5057206;28;20103;-79
2023/10/08 08:59:23;;;;;;;0.00;0.00;;;15.40;99.90;;;;;;5057121;28;20473;-79
2023/10/08 09:01:50;;;;;;;0.10;0.10;;;15.40;1.00;;;;;;5057274;28;20155;-79
2023/10/08 09:04:17;;;;;;;0.47;0.43;;;15.50;1.00;;;;;;5056619;28;20052;-79
2023/10/08 09:06:44;;;;;;;0.22;0.20;;;15.70;1.00;;;;;;5057827;28;20052;-79
2023/10/08 09:09:22;;;;;;;0.00;0.00;;;15.80;99.90;;;;;;5057975;28;20053;-79
2023/10/08 09:11:51;;;;;;;0.52;0.50;;;15.90;99.90;;;;;;5043049;28;20045;-79
2023/10/08 09:14:27;;;;;;;0.00;0.00;;;16.00;74.00;;;;;;5038617;28;20041;-79
2023/10/08 09:16:56;;;;;;;3.50;0.60;;;16.10;99.90;;;;;;5036409;28;20055;-79
2023/10/08 09:19:24;;;;;;;0.57;0.25;;;16.10;99.90;;;;;;5038125;28;20490;-79
2023/10/08 09:22:10;;;;;;;0.10;0.08;;;16.20;1.00;;;;;;5038622;28;20056;-79
2023/10/08 09:24:40;;;;;;;0.22;0.22;;;16.20;1.00;;;;;;5045379;28;20056;-79
2023/10/08 09:27:14;;;;;;;0.00;0.00;;;16.10;88.40;;;;;;5057327;28;20061;-79
2023/10/08 09:29:42;;;;;;;0.10;0.10;;;16.20;99.90;;;;;;5057567;28;20047;-79
2023/10/08 09:32:09;;;;;;;1.17;0.40;;;16.40;99.90;;;;;;5053818;28;20063;-79
2023/10/08 09:34:36;;;;;;;0.75;0.63;;;16.50;99.90;;;;;;5050557;28;20045;-79
2023/10/08 09:37:02;;;;;;;0.75;0.65;;;16.50;99.90;;;;;;5059037;28;20041;-79
2023/10/08 09:39:33;;;;;;;0.00;0.00;;;16.60;99.90;;;;;;5058003;28;20067;-79
2023/10/08 09:42:03;;;;;;;0.32;0.15;;;16.90;45.70;;;;;;5058479;28;20120;-79
2023/10/08 09:44:30;;;;;;;2.05;0.57;;;16.90;1.00;;;;;;5058540;28;20449;-79
2023/10/08 09:47:04;;;;;;;0.98;0.30;;;17.10;16.20;;;;;;5052077;28;20068;-79
2023/10/08 09:49:32;;;;;;;0.00;0.00;;;17.00;1.00;;;;;;5057442;28;20120;-79
2023/10/08 09:52:05;;;;;;;0.43;0.28;;;17.00;1.00;;;;;;5056251;28;20037;-79
2023/10/08 09:54:40;;;;;;;0.57;0.47;;;17.10;1.00;;;;;;5036911;28;20040;-79
2023/10/08 09:57:06;;;;;;;0.00;0.00;;;17.10;1.00;;;;;;5033463;28;20107;-79
2023/10/08 09:59:34;;;;;;;0.00;0.00;;;17.00;1.00;;;;;;5039660;28;20053;-79
2023/10/08 10:02:02;;;;;;;0.10;0.10;;;17.00;99.90;;;;;;5039826;28;20041;-79
2023/10/08 10:04:31;;;;;;;0.00;0.00;;;16.90;1.00;;;;;;5040099;28;20419;-79
2023/10/08 10:06:58;;;;;;;0.00;0.00;;;17.00;99.90;;;;;;5043033;28;20049;-79
2023/10/08 10:09:26;;;;;;;0.63;0.57;;;17.00;99.90;;;;;;5049804;28;20047;-79
2023/10/08 10:11:53;;;;;;;1.23;0.68;;;17.20;99.90;;;;;;5056733;28;20292;-79
2023/10/08 10:14:22;;;;;;;0.68;0.50;;;17.20;99.90;;;;;;5052918;28;20044;-79
2023/10/08 10:17:14;;;;;;;0.20;0.20;;;17.30;99.90;;;;;;5039812;28;20091;-79
2023/10/08 10:19:45;;;;;;;0.00;0.00;;;17.80;99.90;;;;;;5041375;28;20045;-79
2023/10/08 10:22:15;;;;;;;0.50;0.30;;;18.30;1.00;;;;;;5044951;28;20037;-79
2023/10/08 10:24:45;;;;;;;0.28;0.13;;;18.50;99.90;;;;;;5048552;28;20449;-79
2023/10/08 10:27:15;;;;;;;3.20;1.30;;;18.80;1.00;;;;;;5049633;28;20059;-79
2023/10/08 10:29:43;;;;;;;0.00;0.00;;;19.00;1.00;;;;;;5043989;28;20049;-78
2023/10/08 10:32:14;;;;;;;0.75;0.30;;;19.50;1.00;;;;;;5042482;28;20045;-80
2023/10/08 10:34:41;;;;;;;0.00;0.00;;;19.10;99.90;;;;;;5041999;28;20056;-77
2023/10/08 10:37:20;;;;;;;0.15;0.08;;;19.00;99.90;;;;;;5047976;28;20094;-77
2023/10/08 10:40:00;;;;;;;0.00;0.00;;;18.50;99.90;;;;;;5037189;28;20425;-78
2023/10/08 10:42:28;;;;;;;0.00;0.00;;;18.30;99.90;;;;;;5034691;28;20076;-77
2023/10/08 10:44:55;;;;;;;0.00;0.00;;;17.90;99.90;;;;;;5035207;28;20040;-78
2023/10/08 10:49:53;;;;;;;8.10;1.55;;;17.80;99.90;;;;;;5034880;28;20045;-78
2023/10/08 10:52:34;;;;;;;0.15;0.08;;;17.50;99.90;;;;;;5033529;28;20048;-78
2023/10/08 10:57:44;;;;;;;0.00;0.00;;;17.60;99.90;;;;;;5049127;28;20534;-77
2023/10/08 11:03:02;;;;;;;0.00;0.00;;;17.80;99.90;;;;;;5037208;28;20119;-77
2023/10/08 11:05:29;;;;;;;0.25;0.20;;;18.00;99.90;;;;;;5032381;28;20060;-77
2023/10/08 11:08:08;;;;;;;0.00;0.00;;;17.70;99.90;;;;;;5044034;28;20060;-77
2023/10/08 11:10:38;;;;;;;2.83;0.55;;;17.70;99.90;;;;;;5049312;28;20056;-77
2023/10/08 11:13:14;;;;;;;0.52;0.10;;;17.50;99.90;;;;;;5048428;28;20056;-77
2023/10/08 11:15:40;;;;;;;0.70;0.65;;;18.10;99.90;;;;;;5048129;28;20127;-76
2023/10/08 11:18:19;;;;;;;0.10;0.10;;;18.10;99.90;;;;;;5051674;28;20049;-77
2023/10/08 11:20:46;;;;;;;0.17;0.15;;;18.70;99.90;;;;;;5052306;28;20509;-78
2023/10/08 11:23:35;;;;;;;0.57;0.25;;;18.70;99.90;;;;;;5051799;28;20048;-78
2023/10/08 11:26:05;;;;;;;1.10;0.47;;;19.40;99.90;;;;;;5052742;28;20414;-77
2023/10/08 11:28:42;;;;;;;0.00;0.00;;;19.00;99.90;;;;;;5052655;28;20486;-77
2023/10/08 11:31:11;;;;;;;0.10;0.10;;;18.50;99.90;;;;;;5052098;28;20040;-77
2023/10/08 11:33:38;;;;;;;0.00;0.00;;;18.50;99.90;;;;;;5052868;28;20041;-77
2023/10/08 11:36:27;;;;;;;0.10;0.10;;;18.40;99.90;;;;;;5051323;28;20059;-78
2023/10/08 11:39:00;;;;;;;0.13;0.13;;;18.70;99.90;;;;;;5046860;28;20087;-78
2023/10/08 11:41:28;;;;;;;0.00;0.00;;;18.90;99.90;;;;;;5054014;28;20045;-78
2023/10/08 11:43:58;;;;;;;0.03;0.03;;;18.70;99.90;;;;;;5052591;28;20037;-78
2023/10/08 11:46:40;;;;;;;4.72;0.30;;;18.60;99.90;;;;;;5052406;28;20041;-78
2023/10/08 11:49:06;;;;;;;0.60;0.30;;;19.30;99.90;;;;;;5052614;28;20090;-78
2023/10/08 11:51:35;;;;;;;0.00;0.00;;;19.80;99.90;;;;;;5052699;28;20049;-78
2023/10/08 11:54:02;;;;;;;0.88;0.85;;;19.30;99.90;;;;;;5052356;28;20124;-78
2023/10/08 11:56:32;;;;;;;1.27;0.30;;;19.00;99.90;;;;;;5052416;28;20061;-78
2023/10/08 11:58:58;;;;;;;0.03;0.03;;;18.30;99.90;;;;;;5052254;28;20445;-78
2023/10/08 12:01:27;;;;;;;1.55;0.57;;;18.10;99.90;;;;;;5052149;28;20049;-78
2023/10/08 12:03:59;;;;;;;0.10;0.10;;;18.30;99.90;;;;;;5052427;28;20048;-78
2023/10/08 12:06:25;;;;;;;0.00;0.00;;;18.50;99.90;;;;;;5052339;28;20132;-78
2023/10/08 12:08:53;;;;;;;3.40;0.20;;;19.00;99.90;;;;;;5052585;28;20049;-78
2023/10/08 12:11:22;;;;;;;1.35;0.40;;;19.00;99.90;;;;;;5055812;28;20037;-78
2023/10/08 12:13:49;;;;;;;0.75;0.25;;;19.00;99.90;;;;;;5056269;28;20383;-78
2023/10/08 12:16:21;;;;;;;0.00;0.00;;;18.80;99.90;;;;;;5056338;28;20041;-78
2023/10/08 12:18:57;;;;;;;3.75;0.52;;;18.50;99.90;;;;;;5055834;28;20445;-78
2023/10/08 12:21:24;;;;;;;;;;;18.50;99.90;;;;;;5049356;28;20041;-78
2023/10/08 12:23:51;;;;;;;0.65;0.38;;;18.50;99.90;;;;;;5055993;28;20285;-78
2023/10/08 12:26:20;;;;;;;0.00;0.00;;;18.60;99.90;;;;;;5056194;28;20045;-78
2023/10/08 12:28:48;;;;;;;0.35;0.25;;;18.00;99.90;;;;;;5054853;28;20056;-78
2023/10/08 12:31:23;;;;;;;0.10;0.10;;;18.10;99.90;;;;;;5055713;28;20041;-78
2023/10/08 12:33:53;;;;;;;0.08;0.08;;;18.20;99.90;;;;;;5055991;28;20056;-78
2023/10/08 12:36:26;;;;;;;0.52;0.20;;;18.40;99.90;;;;;;5055707;28;20044;-78
2023/10/08 12:38:58;;;;;;;0.00;0.00;;;18.30;99.90;;;;;;5055742;28;20410;-78
2023/10/08 12:41:26;;;;;;;0.00;0.00;;;18.40;99.90;;;;;;5055703;28;20032;-78
2023/10/08 12:43:53;;;;;;;0.32;0.22;;;18.30;99.90;;;;;;5055602;28;20036;-78
2023/10/08 12:46:23;;;;;;;2.08;0.55;;;18.20;99.90;;;;;;5056004;28;20159;-78
2023/10/08 12:48:54;;;;;;;0.22;0.10;;;18.20;99.90;;;;;;5056011;28;20044;-78
2023/10/08 12:51:24;;;;;;;0.25;0.25;;;18.40;99.90;;;;;;5055450;28;20505;-78
2023/10/08 12:53:55;;;;;;;2.63;1.00;;;18.50;99.90;;;;;;5047469;28;20068;-78
2023/10/08 12:56:31;;;;;;;0.00;0.00;;;18.10;99.90;;;;;;5055627;28;20524;-78
2023/10/08 12:59:04;;;;;;;0.00;0.00;;;18.30;99.90;;;;;;5047635;28;20478;-78
2023/10/08 13:01:30;;;;;;;4.90;0.98;;;18.60;99.90;;;;;;5055220;28;20041;-78
2023/10/08 13:04:00;;;;;;;0.10;0.10;;;18.90;99.90;;;;;;5055091;28;20482;-78
2023/10/08 13:06:30;;;;;;;0.98;0.38;;;19.50;99.90;;;;;;5055376;28;20080;-79
2023/10/08 13:08:57;;;;;;;0.10;0.10;;;19.50;99.90;;;;;;5055021;28;20040;-78
2023/10/08 13:11:29;;;;;;;0.30;0.10;;;20.40;99.90;;;;;;5054843;28;20033;-78
2023/10/08 13:13:56;;;;;;;0.32;0.22;;;20.30;99.90;;;;;;5053500;28;20049;-78
2023/10/08 13:16:24;;;;;;;0.00;0.00;;;19.60;99.90;;;;;;5055198;28;20040;-78
2023/10/08 13:18:51;;;;;;;0.20;0.20;;;19.60;99.90;;;;;;5054931;28;20036;-78
2023/10/08 13:21:19;;;;;;;0.00;0.00;;;19.60;99.90;;;;;;5053481;28;20044;-78
2023/10/08 13:23:46;;;;;;;0.00;0.00;;;20.20;99.90;;;;;;5055317;28;20115;-78
2023/10/08 13:26:16;;;;;;;0.22;0.10;;;20.20;99.90;;;;;;5054872;28;20048;-78
2023/10/08 13:28:43;;;;;;;15.07;1.13;;;20.30;99.90;;;;;;5055037;28;20041;-78
2023/10/08 13:31:11;;;;;;;0.65;0.30;;;19.70;99.90;;;;;;5054250;28;20091;-78
2023/10/08 13:33:42;;;;;;;1.00;0.70;;;19.50;99.90;;;;;;5054888;28;20499;-78
2023/10/08 13:36:13;;;;;;;0.20;0.20;;;20.00;99.90;;;;;;5053605;28;20052;-78
2023/10/08 13:38:40;;;;;;;1.52;0.57;;;20.60;99.90;;;;;;5054578;28;20040;-78
2023/10/08 13:41:15;;;;;;;1.08;0.43;;;20.40;99.90;;;;;;5054522;28;20052;-78
2023/10/08 13:43:45;;;;;;;0.10;0.10;;;20.20;99.90;;;;;;5047196;28;20033;-78
2023/10/08 13:46:13;;;;;;;0.20;0.20;;;20.10;99.90;;;;;;5054616;28;20040;-78
2023/10/08 13:48:40;;;;;;;0.17;0.13;;;19.80;99.90;;;;;;5054406;28;20095;-78
2023/10/08 13:51:13;;;;;;;0.13;0.10;;;19.60;99.90;;;;;;5054292;28;20529;-78
2023/10/08 13:53:40;;;;;;;0.00;0.00;;;19.40;99.90;;;;;;5054389;28;20098;-78
2023/10/08 13:56:06;;;;;;;0.17;0.17;;;18.80;99.90;;;;;;5054315;28;20049;-78
2023/10/08 13:58:35;;;;;;;0.15;0.15;;;18.70;99.90;;;;;;5054159;28;20075;-78